Nearby METAR Reports

 

KTAN - Taunton, Massachusetts, USA
Distance from station: W 5mi, 8km
Updated: 07/19/2019 3:28am
Overcast
Overcast
 Wind from N
Wind: N 3 mph , 6 km/h
Temperature: 66°F , 19°C
Dew Point: 63°F , 17°C
Humidity: 88%
Barometer: 29.87 inHg , 1011.5 hPa
Clouds: Overcast
Visibility: 10 miles , 16 km
Cloud details: Overcast 1000 ft
2019/07/19 07:28 KTAN 190728Z AUTO 35003KT 10SM OVC010 19/17 A2987 RMK AO2 CIG 008V011 T01940172
KPYM - Plymouth, Massachusetts, USA
Distance from station: ENE 10mi, 16km
Updated: 07/19/2019 3:44am
Overcast
Overcast
 Wind from NNE
Wind: NNE 5 mph , 7 km/h
Temperature: 66°F , 19°C
Dew Point: 64°F , 18°C
Humidity: 94%
Barometer: 29.87 inHg , 1011.5 hPa
Clouds: Overcast
Visibility: 10 miles , 16 km
Cloud details: Overcast 500 ft
2019/07/19 07:44 KPYM 190744Z AUTO 03004KT 10SM OVC005 19/18 A2987 RMK AO2 T01940178
 
KEWB - New Bedford, Massachusetts, USA
Distance from station: S 14mi, 23km
Updated: 07/19/2019 2:53am
Mist, Overcast
Mist, Overcast
 Wind from calm
Wind: Calm
Temperature: 66°F , 19°C
Dew Point: 64°F , 18°C
Humidity: 94%
Barometer: 29.86 inHg , 1011.2 hPa
Summary: Mist
Clouds: Overcast
Visibility: 5 miles , 8 km
Cloud details: Overcast 300 ft
2019/07/19 06:53 KEWB 190653Z AUTO 00000KT 5SM BR OVC003 19/18 A2986 RMK AO2 SLP111 T01890178
KGHG - Marshfield, Massachusetts, USA
Distance from station: NE 20mi, 31km
Updated: 07/19/2019 3:35am
Overcast
Overcast
 Wind from calm
Wind: Calm
Temperature: 68°F , 20°C
Dew Point: 66°F , 19°C
Humidity: 94%
Barometer: 29.88 inHg , 1011.9 hPa
Clouds: Overcast
Visibility: 10 miles , 16 km
Cloud details: Overcast 900 ft
2019/07/19 07:35 KGHG 190735Z AUTO 00000KT 10SM OVC009 20/19 A2988 RMK AO2
 
KOWD - Norwood, Massachusetts, USA
Distance from station: NNW 24mi, 39km
Updated: 07/19/2019 2:53am
Overcast
Overcast
 Wind from calm
Wind: Calm
Temperature: 68°F , 20°C
Dew Point: 61°F , 16°C
Humidity: 78%
Barometer: 29.89 inHg , 1012.2 hPa
Clouds: Overcast
Visibility: 10 miles , 16 km
Cloud details: Overcast 1900 ft
2019/07/19 06:53 KOWD 190653Z AUTO 00000KT 10SM OVC019 20/16 A2989 RMK AO2 SLP120 T02000156
KMQE - East Milton, Massachusetts, USA
Distance from station: NNW 25mi, 40km
Updated: 07/19/2019 2:56am

 Wind from N
Wind: N 7 mph , 11 km/h
Temperature: 63°F , 17°C
Dew Point: 61°F , 16°C
Humidity: 94%
Barometer: 29.89 inHg , 1012.2 hPa
2019/07/19 06:56 KMQE 190656Z AUTO 01006KT 17/16 A2989 RMK AO1 SLP131 T01670161
 
KFMH - Falmouth/Otis Ab, Massachusetts, USA
Distance from station: SE 27mi, 44km
Updated: 07/19/2019 3:35am
Overcast
Overcast
 Wind from NNE
Wind: NNE 7 mph , 11 km/h
Temperature: 66°F , 19°C
Dew Point: 66°F , 19°C
Humidity: 100%
Barometer: 29.87 inHg , 1011.5 hPa
Clouds: Overcast
Visibility: 7 miles , 11 km
Cloud details: Overcast 300 ft
2019/07/19 07:35 KFMH 190735Z AUTO 03006KT 7SM OVC003 19/19 A2987 RMK AO2 LTG DSNT S
KPVD - Providence/Green, Rhode Island, USA
Distance from station: WSW 29mi, 47km
Updated: 07/19/2019 2:51am
Overcast
Overcast
 Wind from N
Wind: N 6 mph , 9 km/h
Temperature: 66°F , 19°C
Dew Point: 63°F , 17°C
Humidity: 88%
Barometer: 29.89 inHg , 1012.2 hPa
Clouds: Overcast
Visibility: 10 miles , 16 km
Cloud details: Overcast 900 ft
2019/07/19 06:51 KPVD 190651Z AUTO 35005KT 10SM OVC009 19/17 A2989 RMK AO2 SLP120 T01890167
 
KSFZ - Pawtucket, Rhode Island, USA
Distance from station: W 30mi, 48km
Updated: 07/19/2019 2:56am
Overcast
Overcast
 Wind from N
Wind: N 3 mph , 6 km/h
Temperature: 64°F , 18°C
Dew Point: 61°F , 16°C
Humidity: 88%
Barometer: 29.90 inHg , 1012.5 hPa
Clouds: Overcast
Visibility: 10 miles , 16 km
Cloud details: Overcast 800 ft
2019/07/19 06:56 KSFZ 190656Z AUTO 01003KT 10SM OVC008 18/16 A2990 RMK AO2 SLP070 T01780156
KUUU - Newport, Rhode Island, USA
Distance from station: SW 31mi, 50km
Updated: 07/19/2019 2:53am
Mist, Overcast
Mist, Overcast
 Wind from N
Wind: N 6 mph , 9 km/h
Temperature: 66°F , 19°C
Dew Point: 64°F , 18°C
Humidity: 94%
Barometer: 29.88 inHg , 1011.9 hPa
Summary: Mist
Clouds: Overcast
Visibility: 4 miles , 6 km
Cloud details: Overcast 200 ft
2019/07/19 06:53 KUUU 190653Z AUTO 35005KT 4SM BR OVC002 19/18 A2988 RMK AO2 RAE0554 SLP116 P0000 T01890183
 
KOQU - N. Kingston/Quon, Rhode Island, USA
Distance from station: SW 32mi, 52km
Updated: 07/18/2019 10:50pm
NOT Current
Overcast
Overcast
 Wind from ENE
Wind: ENE 12 mph , 19 km/h
Temperature: 66°F , 19°C
Dew Point: 64°F , 18°C
Humidity: 94%
Barometer: 29.92 inHg , 1013.2 hPa
Clouds: Overcast
Visibility: 10 miles , 16 km
Cloud details: Overcast 700 ft
2019/07/19 02:50 KOQU 190250Z 06010KT 10SM OVC007 19/18 A2992 RMK LAST
KBOS - Boston, Massachusetts, USA
Distance from station: N 33mi, 54km
Updated: 07/19/2019 3:13am
Mostly cloudy
Mostly cloudy
 Wind from N
Wind: N 6 mph , 9 km/h
Temperature: 66°F , 19°C
Dew Point: 57°F , 14°C
Humidity: 73%
Barometer: 29.89 inHg , 1012.2 hPa
Clouds: Mostly cloudy
Visibility: 10 miles , 16 km
Cloud details: Mostly cloudy 2300 ft
2019/07/19 07:13 KBOS 190713Z 35005KT 10SM BKN023 19/14 A2989 RMK AO2 T01940144
 
KHYA - Hyannis, Massachusetts, USA
Distance from station: ESE 37mi, 59km
Updated: 07/19/2019 2:56am
Overcast
Overcast
 Wind from NNE
Wind: NNE 5 mph , 7 km/h
Temperature: 68°F , 20°C
Dew Point: 66°F , 19°C
Humidity: 94%
Barometer: 29.85 inHg , 1010.8 hPa
Clouds: Overcast
Visibility: 7 miles , 11 km
Cloud details: Mostly cloudy 400 ft
Overcast 1000 ft
2019/07/19 06:56 KHYA 190656Z AUTO 02004KT 7SM BKN004 OVC010 20/19 A2985 RMK AO2 CIG 002V006 SLP109 T02000189
KMVY - Marthas Vineyard, Massachusetts, USA
Distance from station: SSE 37mi, 60km
Updated: 07/19/2019 3:23am
Mist, Overcast
Mist, Overcast
 Wind from NE
Wind: NE 6 mph , 9 km/h
Temperature: 70°F , 21°C
Dew Point: 68°F , 20°C
Humidity: 94%
Barometer: 29.86 inHg , 1011.2 hPa
Summary: Mist
Clouds: Overcast
Visibility: 1 3/4 miles , 2.8 km
Cloud details: Overcast 200 ft
2019/07/19 07:23 KMVY 190723Z AUTO 04005KT 1 3/4SM BR OVC002 21/20 A2986 RMK AO2 T02060200
 
KPVC - Provincetown, Massachusetts, USA
Distance from station: ENE 38mi, 61km
Updated: 07/19/2019 3:19am
Overcast
Overcast
 Wind from ENE
Wind: ENE 5 mph , 7 km/h
Temperature: 66°F , 19°C
Dew Point: 64°F , 18°C
Humidity: 94%
Barometer: 29.88 inHg , 1011.9 hPa
Clouds: Overcast
Visibility: 10 miles , 16 km
Cloud details: Overcast 300 ft
2019/07/19 07:19 KPVC 190719Z AUTO 06004KT 10SM OVC003 19/18 A2988 RMK AO2 PNO $
KBED - Bedford, Massachusetts, USA
Distance from station: NNW 44mi, 72km
Updated: 07/19/2019 2:56am
Mostly cloudy
Mostly cloudy
 Wind from calm
Wind: Calm
Temperature: 66°F , 19°C
Dew Point: 57°F , 14°C
Humidity: 73%
Barometer: 29.89 inHg , 1012.2 hPa
Clouds: Mostly cloudy
Visibility: 10 miles , 16 km
Cloud details: Mostly cloudy 3600 ft
2019/07/19 06:56 KBED 190656Z AUTO 00000KT 10SM BKN036 19/14 A2989 RMK AO2 SLP131 T01940139
 
KBVY - Beverly, Massachusetts, USA
Distance from station: 0 48mi, 77km
Updated: 07/19/2019 2:53am
Overcast
Overcast
 Wind from NNW
Wind: NNW 5 mph , 7 km/h
Temperature: 63°F , 17°C
Dew Point: 59°F , 15°C
Humidity: 88%
Barometer: 29.89 inHg , 1012.2 hPa
Clouds: Overcast
Visibility: 10 miles , 16 km
Cloud details: Overcast 3700 ft
2019/07/19 06:53 KBVY 190653Z AUTO 34004KT 10SM OVC037 17/15 A2989 RMK AO2 SLP117 T01720150
KCQX - Chatham, Massachusetts, USA
Distance from station: ESE 49mi, 80km
Updated: 07/19/2019 3:23am
Mist, Overcast
Mist, Overcast
 Wind from NE
Wind: NE 8 mph , 13 km/h
Temperature: 66°F , 19°C
Dew Point: 66°F , 19°C
Humidity: 100%
Barometer: 29.87 inHg , 1011.5 hPa
Summary: Mist
Clouds: Overcast
Visibility: 2 1/2 miles , 4 km
Cloud details: Overcast 200 ft
2019/07/19 07:23 KCQX 190723Z AUTO 05007KT 2 1/2SM BR OVC002 19/19 A2987 RMK AO2 T01940194